Time;durP1;ratioP1;P1;durP2;ratioP2;P2;SDS_P1;SDS_P2;PMS_P1;PMS_P2;Temp;Humidity;BMP_temperature;BMP_pressure;BME280_temperature;BME280_humidity;BME280_pressure;Samples;Min_cycle;Max_cycle;Signal;HPM_P1;HPM_P2
2022/05/24 00:00:28;;;;;;;2.83;1.52;;;17.70;99.90;;;;;;4807912;29;20599;-80
2022/05/24 00:02:54;;;;;;;4.93;1.80;;;17.70;99.90;;;;;;4809271;29;20611;-82
2022/05/24 00:05:22;;;;;;;3.65;1.80;;;17.80;99.90;;;;;;4809048;29;20182;-80
2022/05/24 00:07:48;;;;;;;5.10;2.05;;;17.80;99.90;;;;;;4807675;29;20662;-80
2022/05/24 00:10:18;;;;;;;3.50;1.75;;;17.80;99.90;;;;;;4809001;29;20191;-80
2022/05/24 00:12:44;;;;;;;2.47;1.55;;;17.80;99.90;;;;;;4807383;29;20193;-81
2022/05/24 00:15:29;;;;;;;3.13;1.40;;;17.80;99.90;;;;;;4808409;29;20175;-81
2022/05/24 00:18:11;;;;;;;4.78;1.80;;;17.80;99.90;;;;;;4807598;29;20533;-81
2022/05/24 00:20:40;;;;;;;2.75;1.40;;;17.70;99.90;;;;;;4808274;29;20175;-80
2022/05/24 00:23:07;;;;;;;5.63;1.90;;;17.80;99.90;;;;;;4808456;29;20182;-80
2022/05/24 00:25:36;;;;;;;3.08;1.60;;;17.80;99.90;;;;;;4807466;29;20179;-79
2022/05/24 00:28:03;;;;;;;5.43;1.85;;;17.80;99.90;;;;;;4807190;29;20222;-82
2022/05/24 00:30:29;;;;;;;5.07;2.20;;;17.80;99.90;;;;;;4807009;29;20186;-82
2022/05/24 00:32:55;;;;;;;4.63;1.70;;;17.90;99.90;;;;;;4807902;29;20179;-83
2022/05/24 00:35:21;;;;;;;2.47;1.63;;;17.90;99.90;;;;;;4807021;29;20198;-81
2022/05/24 00:37:48;;;;;;;6.50;2.05;;;17.80;99.90;;;;;;4807340;29;20286;-80
2022/05/24 00:40:39;;;;;;;3.17;1.42;;;17.90;99.90;;;;;;4807055;29;20202;-81
2022/05/24 00:43:20;;;;;;;3.30;1.30;;;17.90;99.90;;;;;;4808169;29;20534;-81
2022/05/24 00:45:51;;;;;;;6.38;1.50;;;17.90;99.90;;;;;;4808096;29;20171;-81
2022/05/24 00:48:58;;;;;;;3.33;1.52;;;17.90;99.90;;;;;;4808140;29;20213;-80
2022/05/24 00:51:40;;;;;;;2.67;1.23;;;18.00;99.90;;;;;;4792188;29;20347;-81
2022/05/24 00:54:05;;;;;;;2.75;1.35;;;18.00;99.90;;;;;;4806714;29;20249;-81
2022/05/24 00:57:08;;;;;;;3.92;1.40;;;18.00;99.90;;;;;;4808050;29;20163;-82
2022/05/24 00:59:42;;;;;;;5.60;1.38;;;18.00;99.90;;;;;;4804633;29;20353;-80
2022/05/24 01:02:08;;;;;;;4.57;1.63;;;18.00;99.90;;;;;;4808077;29;20176;-82
2022/05/24 01:04:35;;;;;;;4.30;1.45;;;17.90;99.90;;;;;;4806549;29;20194;-81
2022/05/24 01:07:00;;;;;;;1.83;1.17;;;17.90;99.90;;;;;;4806891;29;20222;-81
2022/05/24 01:09:36;;;;;;;3.55;1.27;;;17.70;99.90;;;;;;4807951;29;20229;-82
2022/05/24 01:12:09;;;;;;;3.78;1.35;;;17.60;99.90;;;;;;4806478;29;20182;-83
2022/05/24 01:14:36;;;;;;;5.25;1.63;;;17.50;99.90;;;;;;4807964;29;20174;-84
2022/05/24 01:17:02;;;;;;;6.18;1.58;;;17.40;99.90;;;;;;4805591;29;20195;-83
2022/05/24 01:19:43;;;;;;;1.67;1.23;;;17.30;99.90;;;;;;4808046;29;20186;-84
2022/05/24 01:22:20;;;;;;;1.85;1.60;;;17.30;99.90;;;;;;4806788;29;20261;-86
2022/05/24 01:25:10;;;;;;;1.45;1.10;;;17.30;99.90;;;;;;4807976;29;20213;-85
2022/05/24 01:27:37;;;;;;;1.20;1.10;;;17.20;99.90;;;;;;4805930;29;20219;-86
2022/05/24 01:30:06;;;;;;;2.15;1.48;;;17.10;99.90;;;;;;4808161;29;20182;-85
2022/05/24 01:38:04;;;;;;;2.80;1.90;;;16.90;99.90;;;;;;4807788;29;20177;-85
2022/05/24 01:40:30;;;;;;;3.53;2.22;;;16.90;99.90;;;;;;4806281;29;20242;-82
2022/05/24 01:42:57;;;;;;;3.92;2.30;;;16.90;99.90;;;;;;4807219;29;20222;-84
2022/05/24 01:45:32;;;;;;;3.47;2.40;;;16.80;99.90;;;;;;4806231;29;20248;-84
2022/05/24 01:48:07;;;;;;;3.05;2.75;;;16.70;99.90;;;;;;4806235;29;20309;-84
2022/05/24 01:50:38;;;;;;;3.67;3.10;;;16.60;99.90;;;;;;4806105;29;20186;-83
2022/05/24 01:53:12;;;;;;;3.78;3.47;;;16.60;99.90;;;;;;4807265;29;20240;-84
2022/05/24 01:55:52;;;;;;;3.40;3.10;;;16.60;99.90;;;;;;4807311;29;20519;-84
2022/05/24 01:58:20;;;;;;;5.65;3.22;;;16.50;99.90;;;;;;4805771;29;20194;-82
2022/05/24 02:00:58;;;;;;;3.80;3.40;;;16.50;99.90;;;;;;4805868;29;20191;-83
2022/05/24 02:03:24;;;;;;;6.38;4.18;;;16.50;99.90;;;;;;4806102;29;20181;-82
2022/05/24 02:05:50;;;;;;;7.90;4.80;;;16.50;99.90;;;;;;4807137;29;20182;-84
2022/05/24 02:08:15;;;;;;;6.07;5.28;;;16.50;99.90;;;;;;4806002;29;20214;-82
2022/05/24 02:10:57;;;;;;;5.72;4.90;;;16.50;99.90;;;;;;4807312;29;20183;-83
2022/05/24 02:13:30;;;;;;;7.70;5.93;;;16.40;99.90;;;;;;5206261;23;21166;-85
2022/05/24 02:15:59;;;;;;;7.25;5.68;;;16.40;99.90;;;;;;4773767;29;20631;-86
2022/05/24 02:18:26;;;;;;;7.38;5.50;;;16.40;99.90;;;;;;4771807;30;20188;-86
2022/05/24 02:20:52;;;;;;;6.57;5.43;;;16.30;99.90;;;;;;4785816;29;20341;-84
2022/05/24 02:23:19;;;;;;;7.28;5.88;;;16.30;99.90;;;;;;4785410;29;20715;-86
2022/05/24 02:25:52;;;;;;;5.90;5.30;;;16.30;99.90;;;;;;4793477;29;20229;-86
2022/05/24 02:28:22;;;;;;;8.63;6.30;;;16.20;99.90;;;;;;4807070;29;20210;-86
2022/05/24 02:30:56;;;;;;;6.95;5.35;;;16.20;99.90;;;;;;4806253;29;20238;-87
2022/05/24 02:33:23;;;;;;;7.95;5.60;;;16.20;99.90;;;;;;4806281;29;20606;-85
2022/05/24 02:35:49;;;;;;;8.23;6.03;;;16.30;99.90;;;;;;4804422;29;20282;-85
2022/05/24 02:38:15;;;;;;;7.07;5.47;;;16.20;99.90;;;;;;4788710;29;20207;-87
2022/05/24 02:43:25;;;;;;;7.43;5.63;;;16.20;99.90;;;;;;4792620;30;20175;-86
2022/05/24 02:45:51;;;;;;;7.47;5.90;;;16.10;99.90;;;;;;4791657;29;20200;-85
2022/05/24 02:48:17;;;;;;;7.00;5.55;;;16.20;99.90;;;;;;4806458;29;20226;-85
2022/05/24 02:50:42;;;;;;;5.72;5.13;;;16.20;99.90;;;;;;4791691;29;20183;-84
2022/05/24 02:53:08;;;;;;;6.13;5.13;;;16.20;99.90;;;;;;4791638;29;20191;-86
2022/05/24 02:55:34;;;;;;;6.65;4.63;;;16.20;99.90;;;;;;4792519;29;20210;-86
2022/05/24 02:58:00;;;;;;;8.05;4.53;;;16.20;99.90;;;;;;4806909;29;20194;-85
2022/05/24 03:00:27;;;;;;;6.13;4.70;;;16.20;99.90;;;;;;4810663;29;20179;-86
2022/05/24 03:02:53;;;;;;;5.50;4.30;;;16.20;99.90;;;;;;4809437;29;20239;-85
2022/05/24 03:05:20;;;;;;;10.52;4.03;;;16.20;99.90;;;;;;4809180;29;20182;-85
2022/05/24 03:10:31;;;;;;;4.78;3.40;;;16.20;99.90;;;;;;4810983;29;20557;-87
2022/05/24 03:15:47;;;;;;;5.22;3.35;;;16.10;99.90;;;;;;4810348;29;20258;-85
2022/05/24 03:18:15;;;;;;;5.32;3.50;;;16.20;99.90;;;;;;4810180;29;20179;-85
2022/05/24 03:20:41;;;;;;;3.58;3.10;;;16.10;99.90;;;;;;4809072;29;20591;-85
2022/05/24 03:23:08;;;;;;;5.15;3.22;;;16.10;99.90;;;;;;4808366;29;20707;-86
2022/05/24 03:25:34;;;;;;;3.50;3.03;;;16.10;99.90;;;;;;4808876;29;20197;-85
2022/05/24 03:28:01;;;;;;;4.45;3.05;;;16.10;99.90;;;;;;4809745;29;20245;-85
2022/05/24 03:30:28;;;;;;;5.75;2.97;;;16.00;99.90;;;;;;4810047;29;20187;-86
2022/05/24 03:32:54;;;;;;;3.33;2.70;;;16.00;99.90;;;;;;4808830;29;20194;-86
2022/05/24 03:35:20;;;;;;;3.65;2.50;;;16.00;99.90;;;;;;4808797;29;20187;-86
2022/05/24 03:37:46;;;;;;;3.40;2.30;;;16.00;99.90;;;;;;4808810;29;20194;-84
2022/05/24 03:40:11;;;;;;;3.65;2.22;;;16.00;99.90;;;;;;4808902;29;20183;-85
2022/05/24 03:42:38;;;;;;;2.75;2.00;;;16.00;99.90;;;;;;4809396;29;20179;-85
2022/05/24 03:45:07;;;;;;;3.38;1.90;;;16.00;99.90;;;;;;4808279;29;20331;-84
2022/05/24 03:47:32;;;;;;;2.63;1.73;;;15.90;99.90;;;;;;4809795;29;20339;-85
2022/05/24 03:49:58;;;;;;;1.77;1.23;;;15.90;99.90;;;;;;4807894;29;20273;-85
2022/05/24 03:52:24;;;;;;;3.28;1.83;;;15.80;99.90;;;;;;4808627;29;20217;-85
2022/05/24 03:54:50;;;;;;;3.10;1.60;;;15.90;99.90;;;;;;4808380;29;20190;-86
2022/05/24 04:00:00;;;;;;;2.50;1.48;;;15.90;99.90;;;;;;4801216;29;20197;-86
2022/05/24 04:02:26;;;;;;;1.35;1.20;;;15.90;99.90;;;;;;4790235;29;20188;-86
2022/05/24 04:04:52;;;;;;;2.80;1.60;;;15.80;99.90;;;;;;4805252;29;20206;-87
2022/05/24 04:07:18;;;;;;;1.80;1.10;;;15.80;99.90;;;;;;4790009;29;20658;-85
2022/05/24 04:09:43;;;;;;;1.70;1.20;;;15.80;99.90;;;;;;4790117;30;20219;-85
2022/05/24 04:12:10;;;;;;;2.67;1.35;;;15.80;99.90;;;;;;4791379;29;20522;-84
2022/05/24 04:14:36;;;;;;;1.30;1.10;;;15.80;99.90;;;;;;4789765;30;20235;-85
2022/05/24 04:17:02;;;;;;;2.03;1.30;;;15.80;99.90;;;;;;4790078;30;20187;-83
2022/05/24 04:19:27;;;;;;;1.40;1.27;;;15.80;99.90;;;;;;4805270;29;20179;-84
2022/05/24 04:21:54;;;;;;;2.47;1.33;;;15.70;99.90;;;;;;4790145;30;20609;-85
2022/05/24 04:24:20;;;;;;;2.45;1.35;;;15.70;99.90;;;;;;4790009;30;20195;-85
2022/05/24 04:26:46;;;;;;;2.13;1.25;;;15.70;99.90;;;;;;4810594;29;20221;-85
2022/05/24 04:29:12;;;;;;;1.30;1.20;;;15.60;99.90;;;;;;4807763;29;20286;-86
2022/05/24 04:31:38;;;;;;;2.60;1.40;;;15.70;99.90;;;;;;4808097;29;20688;-85
2022/05/24 04:34:04;;;;;;;4.00;1.23;;;15.70;99.90;;;;;;4807736;29;20248;-83
2022/05/24 04:36:31;;;;;;;2.33;1.23;;;15.60;99.90;;;;;;4807790;29;20179;-85
2022/05/24 04:38:57;;;;;;;2.08;1.25;;;15.60;99.90;;;;;;4807544;29;20174;-85
2022/05/24 04:44:08;;;;;;;3.00;1.30;;;15.70;99.90;;;;;;4808562;29;20182;-85
2022/05/24 04:49:20;;;;;;;2.05;1.52;;;15.60;99.90;;;;;;4808471;29;20188;-85
2022/05/24 04:51:46;;;;;;;3.45;1.50;;;15.70;99.90;;;;;;4807196;29;20253;-84
2022/05/24 04:54:12;;;;;;;3.28;1.48;;;15.80;99.90;;;;;;4805124;29;20190;-83
2022/05/24 04:56:38;;;;;;;3.55;1.60;;;15.90;99.90;;;;;;4794118;29;20216;-84
2022/05/24 04:59:03;;;;;;;4.18;1.95;;;16.00;99.90;;;;;;4808291;29;20210;-83
2022/05/24 05:01:29;;;;;;;3.60;2.03;;;16.10;99.90;;;;;;4795672;29;20194;-85
2022/05/24 05:03:55;;;;;;;6.03;2.10;;;16.10;99.90;;;;;;4790182;29;20180;-84
2022/05/24 05:06:21;;;;;;;3.60;1.92;;;16.10;99.90;;;;;;4788700;30;20634;-84
2022/05/24 05:08:47;;;;;;;2.33;2.13;;;16.10;99.90;;;;;;4789013;30;20331;-86
2022/05/24 05:11:13;;;;;;;4.00;2.22;;;16.20;99.90;;;;;;4789030;30;20612;-85
2022/05/24 05:13:39;;;;;;;3.95;2.38;;;16.10;99.90;;;;;;4789287;29;20364;-86
2022/05/24 05:16:05;;;;;;;3.10;2.17;;;16.20;99.90;;;;;;4788573;30;20634;-84
2022/05/24 05:18:31;;;;;;;4.03;2.58;;;16.20;99.90;;;;;;4788834;29;20183;-84
2022/05/24 05:20:58;;;;;;;3.28;2.58;;;16.20;99.90;;;;;;4789575;29;20630;-84
2022/05/24 05:23:24;;;;;;;4.93;2.67;;;16.20;99.90;;;;;;4788792;29;20214;-87
2022/05/24 05:25:49;;;;;;;4.05;2.35;;;16.20;99.90;;;;;;4789766;29;20620;-86
2022/05/24 05:28:17;;;;;;;4.18;2.60;;;16.20;99.90;;;;;;4788587;29;20628;-84
2022/05/24 05:33:28;;;;;;;3.38;2.45;;;16.10;99.90;;;;;;4789434;30;20578;-84
2022/05/24 05:35:54;;;;;;;3.58;2.83;;;16.20;99.90;;;;;;4787819;29;20206;-82
2022/05/24 05:38:20;;;;;;;6.30;2.92;;;16.30;99.90;;;;;;4807281;29;20205;-84
2022/05/24 05:40:48;;;;;;;3.50;2.90;;;16.40;99.90;;;;;;4792641;29;20274;-82
2022/05/24 05:43:14;;;;;;;2.63;2.42;;;16.50;99.90;;;;;;4786831;30;20194;-83
2022/05/24 05:45:40;;;;;;;4.22;2.90;;;16.60;99.90;;;;;;4785923;29;20246;-83
2022/05/24 05:48:06;;;;;;;3.22;2.92;;;16.70;99.90;;;;;;4786276;30;20622;-85
2022/05/24 05:50:31;;;;;;;3.38;3.00;;;16.80;99.90;;;;;;4787211;29;20187;-83
2022/05/24 05:52:57;;;;;;;3.88;2.75;;;16.80;99.90;;;;;;4805275;29;20194;-83
2022/05/24 05:55:25;;;;;;;4.55;2.70;;;16.80;99.90;;;;;;4820373;29;20186;-83
2022/05/24 05:57:51;;;;;;;4.43;2.90;;;16.80;99.90;;;;;;4799738;29;20198;-84
2022/05/24 06:00:17;;;;;;;4.25;2.90;;;16.80;99.90;;;;;;4787812;29;20286;-82
2022/05/24 06:02:43;;;;;;;4.32;2.50;;;16.80;99.90;;;;;;4788948;29;20195;-82
2022/05/24 06:05:10;;;;;;;7.72;2.70;;;16.80;99.90;;;;;;4787804;30;20705;-82
2022/05/24 06:07:36;;;;;;;2.80;2.55;;;16.80;99.90;;;;;;4789147;29;20662;-82
2022/05/24 06:10:03;;;;;;;3.80;2.70;;;16.70;99.90;;;;;;4788822;29;20187;-81
2022/05/24 06:12:28;;;;;;;3.53;2.70;;;16.70;99.90;;;;;;4787365;29;20623;-83
2022/05/24 06:14:54;;;;;;;5.88;2.97;;;16.80;99.90;;;;;;4792835;29;20214;-82
2022/05/24 06:17:21;;;;;;;3.63;2.70;;;16.90;99.90;;;;;;4801496;29;20270;-83
2022/05/24 06:19:47;;;;;;;5.22;2.90;;;17.10;99.90;;;;;;4808876;29;20274;-83
2022/05/24 06:22:13;;;;;;;4.60;3.10;;;17.20;99.90;;;;;;4809055;29;20320;-82
2022/05/24 06:24:39;;;;;;;10.20;3.08;;;17.30;99.90;;;;;;4808857;29;20190;-83
2022/05/24 06:27:05;;;;;;;5.07;3.38;;;17.40;99.90;;;;;;4803670;29;20301;-82
2022/05/24 06:29:32;;;;;;;4.15;3.08;;;17.20;99.90;;;;;;4811531;29;20186;-82
2022/05/24 06:31:59;;;;;;;3.95;3.17;;;17.20;99.90;;;;;;4808220;29;20175;-81
2022/05/24 06:34:25;;;;;;;5.35;3.92;;;17.20;99.90;;;;;;4789070;29;20688;-82
2022/05/24 06:36:50;;;;;;;6.68;4.28;;;17.30;99.90;;;;;;4790484;30;20194;-83
2022/05/24 06:39:16;;;;;;;4.78;3.28;;;17.30;99.90;;;;;;4793008;30;20179;-82
2022/05/24 06:41:42;;;;;;;6.22;3.95;;;17.20;99.90;;;;;;4793465;30;20183;-83
2022/05/24 06:44:07;;;;;;;4.97;4.35;;;17.30;99.90;;;;;;4792890;29;20209;-81
2022/05/24 06:46:33;;;;;;;6.07;4.10;;;17.40;99.90;;;;;;4793581;29;20191;-82
2022/05/24 06:48:59;;;;;;;6.78;4.35;;;17.40;99.90;;;;;;4793188;30;20234;-81
2022/05/24 06:51:25;;;;;;;5.80;4.15;;;17.40;99.90;;;;;;4794666;29;20256;-82
2022/05/24 06:53:51;;;;;;;6.00;4.75;;;17.50;99.90;;;;;;4793309;30;20654;-82
2022/05/24 06:56:18;;;;;;;5.15;4.63;;;17.50;99.90;;;;;;4796694;29;20193;-82
2022/05/24 06:58:43;;;;;;;7.13;4.57;;;17.40;99.90;;;;;;4811230;29;20183;-82
2022/05/24 07:03:56;;;;;;;7.00;4.53;;;17.40;99.90;;;;;;4795243;29;20646;-83
2022/05/24 07:06:22;;;;;;;6.85;5.82;;;17.50;99.90;;;;;;4794065;29;20187;-82
2022/05/24 07:08:49;;;;;;;8.90;5.68;;;17.60;99.90;;;;;;4802495;29;20214;-81
2022/05/24 07:11:17;;;;;;;6.85;5.75;;;17.80;99.90;;;;;;4826218;29;20186;-80
2022/05/24 07:13:42;;;;;;;6.65;5.65;;;18.00;99.90;;;;;;4422674;29;20226;-81
2022/05/24 07:16:09;;;;;;;6.65;6.05;;;18.10;99.90;;;;;;4791340;29;20635;-81
2022/05/24 07:18:36;;;;;;;6.82;6.07;;;18.10;99.90;;;;;;4794396;29;20514;-82
2022/05/24 07:21:03;;;;;;;6.78;6.07;;;18.00;99.90;;;;;;4793073;29;20187;-81
2022/05/24 07:23:29;;;;;;;10.20;5.57;;;18.00;99.90;;;;;;4792796;29;20179;-80
2022/05/24 07:26:08;;;;;;;7.75;5.38;;;18.00;99.90;;;;;;4790526;29;20194;-81
2022/05/24 07:28:36;;;;;;;6.75;5.75;;;18.00;99.90;;;;;;4808160;29;20653;-79
2022/05/24 07:31:01;;;;;;;7.50;6.07;;;18.10;99.90;;;;;;4791421;29;20529;-81
2022/05/24 07:33:27;;;;;;;7.55;5.82;;;18.20;99.90;;;;;;4791328;29;20183;-80
2022/05/24 07:35:54;;;;;;;6.68;5.00;;;18.30;99.90;;;;;;4789906;30;20183;-82
2022/05/24 07:38:19;;;;;;;8.40;6.28;;;18.30;99.90;;;;;;4791071;29;20190;-80
2022/05/24 07:46:15;;;;;;;6.85;6.15;;;18.50;99.90;;;;;;4790857;29;20186;-78
2022/05/24 07:48:41;;;;;;;7.60;5.70;;;18.40;99.90;;;;;;4790535;29;20284;-81
2022/05/24 07:51:07;;;;;;;6.47;5.28;;;18.30;99.90;;;;;;4791076;29;20208;-80
2022/05/24 07:53:33;;;;;;;6.90;5.20;;;18.30;99.90;;;;;;4791199;29;20267;-80
2022/05/24 07:56:00;;;;;;;6.15;4.53;;;18.30;99.90;;;;;;4791025;29;20179;-80
2022/05/24 07:58:26;;;;;;;4.38;3.97;;;18.30;99.90;;;;;;4808893;29;20194;-82
2022/05/24 08:00:55;;;;;;;7.10;4.30;;;18.40;99.90;;;;;;4809272;29;20194;-81
2022/05/24 08:03:21;;;;;;;3.90;3.47;;;18.50;99.90;;;;;;4796692;29;20219;-81
2022/05/24 08:05:46;;;;;;;6.05;3.85;;;18.50;99.90;;;;;;4790515;29;20567;-81
2022/05/24 08:08:14;;;;;;;4.40;3.70;;;18.40;99.90;;;;;;4789612;29;20211;-81
2022/05/24 08:10:40;;;;;;;5.28;3.63;;;18.30;99.90;;;;;;4790818;29;20672;-80
2022/05/24 08:13:09;;;;;;;5.30;4.07;;;18.30;99.90;;;;;;4790148;29;20564;-81
2022/05/24 08:15:35;;;;;;;4.03;3.40;;;18.30;99.90;;;;;;4788971;29;20187;-82
2022/05/24 08:18:01;;;;;;;4.75;3.83;;;18.50;99.90;;;;;;4788810;29;20192;-81
2022/05/24 08:20:29;;;;;;;6.18;3.88;;;18.70;99.90;;;;;;4790556;29;20168;-81
2022/05/24 08:22:56;;;;;;;6.28;4.47;;;18.90;99.90;;;;;;4790849;29;20530;-83
2022/05/24 08:25:22;;;;;;;5.15;4.25;;;19.00;99.90;;;;;;4790340;29;20228;-80
2022/05/24 08:27:48;;;;;;;4.85;4.20;;;19.20;99.90;;;;;;4804544;29;20215;-81
2022/05/24 08:30:16;;;;;;;4.90;4.30;;;19.40;99.90;;;;;;4808444;29;20546;-80
2022/05/24 08:32:42;;;;;;;6.35;4.20;;;19.40;99.90;;;;;;4803221;29;20184;-80
2022/05/24 08:35:12;;;;;;;5.50;4.90;;;19.30;99.90;;;;;;4789138;29;20188;-82
2022/05/24 08:37:39;;;;;;;4.82;4.32;;;19.30;99.90;;;;;;4789813;29;20179;-80
2022/05/24 08:40:07;;;;;;;5.97;4.28;;;19.50;99.90;;;;;;4789648;30;20678;-80
2022/05/24 08:43:07;;;;;;;6.25;4.00;;;19.30;99.90;;;;;;4802913;29;20245;-81
2022/05/24 08:48:51;;;;;;;5.13;4.40;;;19.20;99.90;;;;;;4789190;30;20275;-80
2022/05/24 08:51:27;;;;;;;5.18;4.20;;;19.20;99.90;;;;;;4770850;30;20180;-79
2022/05/24 08:53:56;;;;;;;7.25;4.80;;;19.10;99.90;;;;;;4769270;30;20551;-80
2022/05/24 08:56:26;;;;;;;7.82;4.75;;;18.90;99.90;;;;;;4785166;29;20187;-82
2022/05/24 08:59:30;;;;;;;6.85;4.15;;;19.00;99.90;;;;;;4807719;29;20197;-81
2022/05/24 09:01:57;;;;;;;4.97;4.40;;;19.10;99.90;;;;;;4797355;29;20199;-81
2022/05/24 09:04:23;;;;;;;5.78;4.50;;;19.20;99.90;;;;;;4788962;29;20194;-82
2022/05/24 09:06:51;;;;;;;6.72;4.72;;;19.10;99.90;;;;;;4789884;29;20517;-80
2022/05/24 09:09:35;;;;;;;5.72;4.90;;;18.90;99.90;;;;;;4789073;29;20191;-81
2022/05/24 09:12:08;;;;;;;5.55;4.93;;;18.70;99.90;;;;;;4789788;29;20259;-81
2022/05/24 09:15:14;;;;;;;5.95;5.03;;;18.50;99.90;;;;;;4788268;29;20243;-81
2022/05/24 09:18:20;;;;;;;5.95;4.80;;;18.40;99.90;;;;;;4776229;30;20196;-82
2022/05/24 09:20:46;;;;;;;8.93;5.13;;;18.20;99.90;;;;;;4785604;30;20176;-80
2022/05/24 09:23:28;;;;;;;7.03;4.47;;;18.00;99.90;;;;;;4785314;30;20192;-81
2022/05/24 09:26:06;;;;;;;6.40;4.97;;;18.00;99.90;;;;;;4789502;29;20195;-80
2022/05/24 09:28:57;;;;;;;2.17;1.70;;;17.80;99.90;;;;;;4781872;30;20264;-82
2022/05/24 09:31:35;;;;;;;3.53;2.10;;;17.60;99.90;;;;;;4802046;29;20185;-84
2022/05/24 09:34:07;;;;;;;6.60;2.00;;;17.10;99.90;;;;;;4788911;29;20187;-86
2022/05/24 09:36:39;;;;;;;1.98;1.77;;;16.60;99.90;;;;;;4788983;30;20320;-95
2022/05/24 09:39:25;;;;;;;2.72;2.10;;;16.20;99.90;;;;;;4802675;29;20634;-89
2022/05/24 09:42:03;;;;;;;4.00;2.55;;;15.90;99.90;;;;;;4808271;29;20186;-89
2022/05/24 09:44:44;;;;;;;5.38;2.95;;;15.80;99.90;;;;;;4820191;29;20190;-83
2022/05/24 09:47:32;;;;;;;5.30;3.42;;;15.80;99.90;;;;;;4806328;29;20277;-85
2022/05/24 09:50:32;;;;;;;5.13;3.70;;;15.70;99.90;;;;;;4806217;29;20190;-83
2022/05/24 09:53:04;;;;;;;4.78;4.28;;;15.70;99.90;;;;;;4806160;29;20524;-83
2022/05/24 09:55:47;;;;;;;5.90;4.25;;;15.70;99.90;;;;;;4805980;29;20347;-86
2022/05/24 09:58:33;;;;;;;6.57;4.45;;;15.80;99.90;;;;;;4807655;29;20167;-87
2022/05/24 10:01:07;;;;;;;5.05;4.40;;;15.80;99.90;;;;;;4807698;29;20236;-87
2022/05/24 10:03:42;;;;;;;4.90;4.30;;;15.90;99.90;;;;;;4795233;29;20188;-84
2022/05/24 10:06:22;;;;;;;5.10;4.60;;;16.00;99.90;;;;;;4770425;30;20283;-85
2022/05/24 10:08:58;;;;;;;7.00;5.63;;;16.20;99.90;;;;;;4785397;29;20290;-85
2022/05/24 10:11:41;;;;;;;6.38;4.80;;;16.30;99.90;;;;;;4787939;30;20175;-82
2022/05/24 10:14:21;;;;;;;5.63;4.28;;;16.50;99.90;;;;;;4788309;29;20235;-84
2022/05/24 10:17:04;;;;;;;7.90;5.13;;;16.60;99.90;;;;;;4788310;29;20175;-86
2022/05/24 10:19:48;;;;;;;5.35;4.30;;;16.50;99.90;;;;;;4802135;29;20530;-84
2022/05/24 10:22:48;;;;;;;4.82;4.32;;;16.50;99.90;;;;;;4784844;29;20200;-83
2022/05/24 10:25:39;;;;;;;5.93;4.55;;;16.60;99.90;;;;;;4784108;30;20186;-84
2022/05/24 10:28:34;;;;;;;5.47;4.22;;;16.60;99.90;;;;;;4788395;29;20207;-85
2022/05/24 10:31:12;;;;;;;5.53;3.90;;;16.70;99.90;;;;;;4801281;29;20534;-84
2022/05/24 10:40:00;;;;;;;3.17;2.50;;;16.90;99.90;;;;;;4776945;30;20219;-86
2022/05/24 10:43:04;;;;;;;4.60;2.55;;;17.00;99.90;;;;;;4785573;29;20179;-90
2022/05/24 10:45:58;;;;;;;1.73;1.63;;;17.10;99.90;;;;;;4805666;29;20190;-83
2022/05/24 10:48:45;;;;;;;1.48;1.38;;;17.20;99.90;;;;;;4806047;29;20218;-86
2022/05/24 10:51:28;;;;;;;1.40;1.30;;;17.60;99.90;;;;;;4801838;29;20627;-87
2022/05/24 10:53:58;;;;;;;1.55;1.33;;;17.70;99.90;;;;;;4802656;29;20584;-86
2022/05/24 10:56:37;;;;;;;3.03;1.55;;;17.80;99.90;;;;;;4802984;29;20726;-90
2022/05/24 10:59:15;;;;;;;2.55;1.63;;;18.00;99.90;;;;;;4788948;29;20187;-86
2022/05/24 11:02:07;;;;;;;3.17;1.67;;;18.30;99.90;;;;;;4792096;29;20183;-82
2022/05/24 11:04:49;;;;;;;3.17;2.17;;;18.40;99.90;;;;;;4790650;29;20274;-84
2022/05/24 11:07:18;;;;;;;3.58;2.05;;;18.40;99.90;;;;;;4790880;30;20184;-83
2022/05/24 11:10:20;;;;;;;2.25;1.90;;;18.80;99.90;;;;;;4806005;29;20191;-84
2022/05/24 11:12:51;;;;;;;2.22;2.03;;;18.80;99.90;;;;;;4794554;29;20186;-85
2022/05/24 11:15:33;;;;;;;2.50;2.03;;;18.80;99.90;;;;;;4798819;29;20203;-84
2022/05/24 11:18:08;;;;;;;1.60;1.50;;;18.80;99.90;;;;;;4790303;29;20188;-85
2022/05/24 11:20:39;;;;;;;2.17;1.50;;;18.60;99.90;;;;;;4801523;29;20648;-86
2022/05/24 11:23:12;;;;;;;1.30;1.20;;;18.60;99.90;;;;;;4791124;29;20595;-85
2022/05/24 11:25:50;;;;;;;1.55;1.13;;;18.70;99.90;;;;;;4791468;29;20167;-82
2022/05/24 11:28:29;;;;;;;4.47;1.13;;;18.70;99.90;;;;;;4790740;29;20298;-82
2022/05/24 11:31:17;;;;;;;1.42;1.20;;;18.70;99.90;;;;;;4791286;29;20658;-83
2022/05/24 11:33:43;;;;;;;2.75;1.40;;;18.80;99.90;;;;;;4788786;29;20708;-84
2022/05/24 11:36:27;;;;;;;1.40;1.30;;;18.90;99.90;;;;;;4789986;30;20202;-83
2022/05/24 11:38:53;;;;;;;3.72;1.35;;;19.00;99.90;;;;;;4804774;29;20631;-81
2022/05/24 11:41:30;;;;;;;3.15;1.35;;;19.00;99.90;;;;;;4790780;29;20183;-83
2022/05/24 11:43:59;;;;;;;2.33;1.10;;;19.00;99.90;;;;;;4801189;29;20190;-83
2022/05/24 11:46:34;;;;;;;1.63;1.30;;;19.10;99.90;;;;;;4807861;29;20190;-81
2022/05/24 11:49:04;;;;;;;1.98;1.00;;;19.30;99.90;;;;;;4803039;29;20526;-83
2022/05/24 11:51:46;;;;;;;1.52;1.10;;;19.50;99.90;;;;;;4790095;30;20187;-81
2022/05/24 11:54:23;;;;;;;2.20;1.50;;;19.80;99.90;;;;;;4789987;30;20179;-81
2022/05/24 11:57:01;;;;;;;1.23;1.13;;;20.10;99.90;;;;;;4791091;29;20377;-80
2022/05/24 11:59:39;;;;;;;2.63;1.23;;;20.40;99.90;;;;;;4798153;29;20187;-85
2022/05/24 12:02:20;;;;;;;3.05;1.80;;;20.10;99.90;;;;;;4804859;29;20229;-82
2022/05/24 12:08:06;;;;;;;3.22;2.08;;;19.70;99.90;;;;;;4790987;30;20214;-81
2022/05/24 12:11:04;;;;;;;4.18;1.90;;;20.00;99.90;;;;;;4790733;29;20187;-81
2022/05/24 12:13:48;;;;;;;2.95;2.00;;;19.60;99.90;;;;;;4790570;29;20238;-81
2022/05/24 12:16:32;;;;;;;3.33;1.55;;;19.30;99.90;;;;;;4799901;29;20194;-81
2022/05/24 12:19:03;;;;;;;4.15;1.70;;;18.80;99.90;;;;;;4786481;29;20191;-83
2022/05/24 12:22:00;;;;;;;2.08;1.85;;;18.30;99.90;;;;;;4772948;30;20165;-80
2022/05/24 12:24:29;;;;;;;3.25;1.80;;;17.80;99.90;;;;;;4784149;30;20623;-82
2022/05/24 12:27:20;;;;;;;5.80;1.75;;;17.70;99.90;;;;;;4805358;29;20274;-81
2022/05/24 12:29:57;;;;;;;3.22;2.10;;;17.80;99.90;;;;;;4807276;29;20657;-81
2022/05/24 12:32:25;;;;;;;3.28;2.10;;;18.30;99.90;;;;;;4807437;29;20178;-82
2022/05/24 12:34:51;;;;;;;4.35;2.20;;;18.90;99.90;;;;;;4807195;29;20198;-84
2022/05/24 12:37:25;;;;;;;4.38;2.00;;;19.40;99.90;;;;;;4804037;29;20199;-80
2022/05/24 12:40:20;;;;;;;4.25;2.20;;;19.60;99.90;;;;;;4789141;29;20202;-82
2022/05/24 12:42:52;;;;;;;4.30;1.83;;;19.60;99.90;;;;;;4790000;29;20184;-83
2022/05/24 12:45:33;;;;;;;3.60;1.90;;;19.60;99.90;;;;;;4788067;29;20629;-85
2022/05/24 12:47:58;;;;;;;1.75;1.65;;;19.80;99.90;;;;;;4788016;29;20246;-81
2022/05/24 12:50:37;;;;;;;3.10;1.75;;;19.80;99.90;;;;;;4785778;30;20281;-81
2022/05/24 12:53:11;;;;;;;3.15;1.40;;;19.70;99.90;;;;;;4785725;29;20635;-80
2022/05/24 12:55:55;;;;;;;1.45;1.10;;;19.50;99.90;;;;;;4788156;30;20202;-80
2022/05/24 12:58:31;;;;;;;6.93;1.38;;;19.60;99.90;;;;;;4801266;29;20205;-81
2022/05/24 13:01:16;;;;;;;4.53;1.00;;;19.60;99.90;;;;;;4807810;29;20202;-82
2022/05/24 13:04:03;;;;;;;1.70;0.80;;;19.80;99.90;;;;;;4806441;29;20652;-80
2022/05/24 13:06:32;;;;;;;1.45;0.75;;;20.20;99.90;;;;;;4821965;29;20629;-81
2022/05/24 13:09:19;;;;;;;2.40;0.88;;;20.70;99.90;;;;;;4780869;29;20227;-81
2022/05/24 13:11:48;;;;;;;1.65;0.80;;;21.10;98.70;;;;;;4787263;29;20187;-82
2022/05/24 13:14:43;;;;;;;1.40;0.70;;;21.40;99.40;;;;;;4789174;29;20289;-82
2022/05/24 13:17:12;;;;;;;2.90;0.80;;;21.50;98.50;;;;;;4803721;29;20260;-80
2022/05/24 13:19:51;;;;;;;2.13;0.88;;;21.70;97.20;;;;;;4789168;29;20540;-82
2022/05/24 13:22:19;;;;;;;2.20;0.77;;;21.50;96.90;;;;;;4789633;29;20170;-80
2022/05/24 13:25:02;;;;;;;1.10;0.63;;;21.10;96.40;;;;;;4788398;29;20187;-81
2022/05/24 13:27:51;;;;;;;1.85;0.90;;;21.10;97.50;;;;;;4789679;29;20303;-81
2022/05/24 13:35:50;;;;;;;2.05;0.73;;;21.30;96.50;;;;;;4789456;30;20186;-81
2022/05/24 13:38:26;;;;;;;2.17;0.70;;;21.20;96.10;;;;;;4789299;29;20642;-81
2022/05/24 13:40:55;;;;;;;1.20;0.80;;;20.90;96.50;;;;;;4802605;29;20194;-80
2022/05/24 13:43:44;;;;;;;3.33;0.60;;;20.90;98.20;;;;;;4789465;29;20171;-80
2022/05/24 13:46:20;;;;;;;1.48;0.70;;;20.50;97.00;;;;;;4802461;29;20320;-81
2022/05/24 13:48:56;;;;;;;1.20;0.60;;;20.00;96.70;;;;;;4789475;29;20646;-81
2022/05/24 13:51:35;;;;;;;0.63;0.50;;;19.60;97.50;;;;;;4788028;30;20182;-81
2022/05/24 13:54:02;;;;;;;2.63;1.02;;;19.60;97.70;;;;;;4773846;30;20179;-83
2022/05/24 13:56:45;;;;;;;1.25;0.70;;;19.90;99.00;;;;;;4788018;30;20191;-83
2022/05/24 13:59:22;;;;;;;1.15;0.55;;;20.30;97.60;;;;;;4805923;29;20187;-83
2022/05/24 14:01:57;;;;;;;2.13;0.80;;;20.30;96.60;;;;;;4807199;29;20186;-81